Time;durP1;ratioP1;P1;durP2;ratioP2;P2;SDS_P1;SDS_P2;PMS_P1;PMS_P2;Temp;Humidity;BMP_temperature;BMP_pressure;BME280_temperature;BME280_humidity;BME280_pressure;Samples;Min_cycle;Max_cycle;Signal;HPM_P1;HPM_P2
2021/12/16 00:02:04;;;;;;;87.57;49.70;;;;;;;;;;5026560;28;20038;-82
2021/12/16 00:10:13;;;;;;;87.97;52.47;;;;;;;;;;5024427;28;20168;-82
2021/12/16 00:29:39;;;;;;;85.22;50.95;;;;;;;;;;5025313;28;20140;-81
2021/12/16 00:32:06;;;;;;;80.28;51.78;;;;;;;;;;5022588;28;20355;-82
2021/12/16 00:34:32;;;;;;;80.57;49.20;;;;;;;;;;5025706;28;20077;-81
2021/12/16 00:36:58;;;;;;;76.60;48.05;;;;;;;;;;5022671;28;20041;-80
2021/12/16 00:39:26;;;;;;;78.93;47.42;;;;;;;;;;5024575;28;20038;-81
2021/12/16 00:41:58;;;;;;;80.88;48.10;;;;;;;;;;5024535;28;20041;-81
2021/12/16 00:47:00;;;;;;;79.05;50.03;;;;;;;;;;5029047;28;20038;-83
2021/12/16 00:54:43;;;;;;;82.45;50.28;;;;;;;;;;5027899;28;20049;-82
2021/12/16 00:57:13;;;;;;;79.78;49.80;;;;;;;;;;5030747;28;20080;-84
2021/12/16 00:59:42;;;;;;;79.82;46.88;;;;;;;;;;5025688;28;20042;-84
2021/12/16 01:02:26;;;;;;;78.85;47.30;;;;;;;;;;5022310;28;20042;-85
2021/12/16 01:05:29;;;;;;;77.63;48.63;;;;;;;;;;5042199;28;20040;-82
2021/12/16 01:35:15;;;;;;;88.22;52.70;;;;;;;;;;5021761;28;20366;-82
2021/12/16 01:50:27;;;;;;;98.97;57.03;;;;;;;;;;5030743;28;20227;-83
2021/12/16 01:55:30;;;;;;;81.32;52.80;;;;;;;;;;5027488;28;20418;-82
2021/12/16 01:58:10;;;;;;;90.68;51.95;;;;;;;;;;5027313;28;20046;-83
2021/12/16 02:01:10;;;;;;;86.10;52.38;;;;;;;;;;5026510;28;20046;-84
2021/12/16 02:03:42;;;;;;;87.95;52.10;;;;;;;;;;5037722;28;20049;-82
2021/12/16 02:08:45;;;;;;;92.63;53.65;;;;;;;;;;5021829;28;20038;-81
2021/12/16 02:30:33;;;;;;;99.35;56.25;;;;;;;;;;5026784;28;20528;-84
2021/12/16 02:36:00;;;;;;;107.40;57.47;;;;;;;;;;5028730;28;20080;-83
2021/12/16 02:38:31;;;;;;;101.95;58.72;;;;;;;;;;5031619;28;20093;-83
2021/12/16 02:40:57;;;;;;;106.22;60.40;;;;;;;;;;5023622;28;20136;-84
2021/12/16 02:48:38;;;;;;;104.38;56.55;;;;;;;;;;5026473;28;20042;-84
2021/12/16 02:51:23;;;;;;;115.68;65.43;;;;;;;;;;5027906;28;20078;-83
2021/12/16 02:53:51;;;;;;;121.47;63.42;;;;;;;;;;5026594;28;20060;-86
2021/12/16 02:56:17;;;;;;;117.15;67.38;;;;;;;;;;5025868;28;20508;-86
2021/12/16 02:58:46;;;;;;;120.95;63.67;;;;;;;;;;5023205;28;20090;-84
2021/12/16 03:01:17;;;;;;;113.55;64.65;;;;;;;;;;5022042;28;20061;-82
2021/12/16 03:03:43;;;;;;;128.48;67.82;;;;;;;;;;5021976;28;20446;-82
2021/12/16 03:06:10;;;;;;;119.50;67.63;;;;;;;;;;5021021;28;20034;-82
2021/12/16 03:08:37;;;;;;;127.57;68.03;;;;;;;;;;5022358;28;20030;-83
2021/12/16 03:11:17;;;;;;;124.57;66.72;;;;;;;;;;5021564;28;20066;-83
2021/12/16 03:14:02;;;;;;;130.50;69.60;;;;;;;;;;5023619;28;20420;-82
2021/12/16 03:16:42;;;;;;;120.30;65.43;;;;;;;;;;5021368;28;20065;-84
2021/12/16 03:19:17;;;;;;;132.57;71.57;;;;;;;;;;5020764;28;20057;-85
2021/12/16 03:21:48;;;;;;;139.57;70.72;;;;;;;;;;5022088;28;20061;-83
2021/12/16 03:34:55;;;;;;;120.25;66.68;;;;;;;;;;5021750;28;20038;-85
2021/12/16 03:37:24;;;;;;;;;;;;;;;;;;5022631;28;20042;-82
2021/12/16 03:40:10;;;;;;;133.63;71.43;;;;;;;;;;5020689;28;19910;-82
2021/12/16 03:42:38;;;;;;;127.03;67.53;;;;;;;;;;5021645;28;20042;-85
2021/12/16 03:46:25;;;;;;;132.93;69.65;;;;;;;;;;5022410;28;20042;-84
2021/12/16 03:47:55;;;;;;;117.38;63.22;;;;;;;;;;5022065;28;20120;-83
2021/12/16 03:50:22;;;;;;;119.80;63.08;;;;;;;;;;5022043;28;20042;-81
2021/12/16 03:52:51;;;;;;;126.10;66.50;;;;;;;;;;5023621;28;20386;-83
2021/12/16 03:55:17;;;;;;;133.13;66.15;;;;;;;;;;5023283;28;20042;-82
2021/12/16 03:57:44;;;;;;;136.30;70.22;;;;;;;;;;5025156;28;20037;-83
2021/12/16 04:00:27;;;;;;;125.13;64.13;;;;;;;;;;5028470;28;20089;-81
2021/12/16 04:02:53;;;;;;;127.65;65.25;;;;;;;;;;5025104;28;20048;-83
2021/12/16 04:05:19;;;;;;;116.00;63.88;;;;;;;;;;5024817;28;20030;-83
2021/12/16 04:07:45;;;;;;;120.53;64.03;;;;;;;;;;5023781;28;20119;-84
2021/12/16 04:10:20;;;;;;;112.32;61.88;;;;;;;;;;5024067;28;20053;-86
2021/12/16 04:12:48;;;;;;;116.65;61.95;;;;;;;;;;5025089;28;20038;-83
2021/12/16 04:15:14;;;;;;;112.65;61.78;;;;;;;;;;5031068;28;20042;-84
2021/12/16 04:17:40;;;;;;;106.10;60.22;;;;;;;;;;5030780;28;20332;-84
2021/12/16 04:20:08;;;;;;;111.07;62.45;;;;;;;;;;5030574;28;20482;-83
2021/12/16 04:22:38;;;;;;;121.95;65.10;;;;;;;;;;5031551;28;20058;-82
2021/12/16 04:25:05;;;;;;;118.55;64.18;;;;;;;;;;5026280;28;20053;-83
2021/12/16 04:27:31;;;;;;;137.77;68.32;;;;;;;;;;5024647;28;20038;-83
2021/12/16 04:29:57;;;;;;;126.53;69.85;;;;;;;;;;5025651;28;20042;-85
2021/12/16 04:32:23;;;;;;;131.25;69.00;;;;;;;;;;5027332;28;20103;-85
2021/12/16 04:34:50;;;;;;;122.18;67.38;;;;;;;;;;5031992;28;20053;-85
2021/12/16 04:37:16;;;;;;;130.18;67.97;;;;;;;;;;5036056;28;20033;-83
2021/12/16 04:39:42;;;;;;;130.35;68.75;;;;;;;;;;5037297;28;20121;-83
2021/12/16 04:42:08;;;;;;;138.05;70.43;;;;;;;;;;5033521;28;20058;-81
2021/12/16 04:44:34;;;;;;;125.85;66.43;;;;;;;;;;5024524;28;20052;-83
2021/12/16 04:47:00;;;;;;;137.75;69.97;;;;;;;;;;5022925;28;20093;-84
2021/12/16 04:49:26;;;;;;;129.20;66.03;;;;;;;;;;5035390;28;20041;-84
2021/12/16 04:51:53;;;;;;;130.45;65.03;;;;;;;;;;5026543;28;20056;-81
2021/12/16 04:54:20;;;;;;;148.32;67.50;;;;;;;;;;5027896;28;20049;-82
2021/12/16 04:56:46;;;;;;;123.43;65.45;;;;;;;;;;5030334;28;20054;-83
2021/12/16 04:59:13;;;;;;;123.47;65.47;;;;;;;;;;5028749;28;20042;-82
2021/12/16 05:01:40;;;;;;;125.18;66.78;;;;;;;;;;5027519;28;20046;-82
2021/12/16 05:04:06;;;;;;;128.73;65.13;;;;;;;;;;5026943;28;20038;-84
2021/12/16 05:06:32;;;;;;;129.23;67.55;;;;;;;;;;5031469;28;20049;-86
2021/12/16 05:08:58;;;;;;;125.28;63.58;;;;;;;;;;5024283;28;20038;-82
2021/12/16 05:11:25;;;;;;;135.20;67.85;;;;;;;;;;5025812;28;20569;-80
2021/12/16 05:13:51;;;;;;;127.82;65.80;;;;;;;;;;5022410;28;20465;-83
2021/12/16 05:16:17;;;;;;;123.07;64.97;;;;;;;;;;5020995;28;20466;-83
2021/12/16 05:18:43;;;;;;;120.78;64.38;;;;;;;;;;5021332;28;20046;-83
2021/12/16 05:21:26;;;;;;;131.27;63.33;;;;;;;;;;5020168;28;20050;-81
2021/12/16 05:26:36;;;;;;;116.40;60.63;;;;;;;;;;5024049;28;20045;-81
2021/12/16 05:29:03;;;;;;;113.38;60.53;;;;;;;;;;5022389;28;20037;-81
2021/12/16 05:31:29;;;;;;;113.57;60.60;;;;;;;;;;5024367;28;20060;-78
2021/12/16 05:33:56;;;;;;;126.63;62.35;;;;;;;;;;5028570;28;20041;-78
2021/12/16 05:36:22;;;;;;;128.52;62.55;;;;;;;;;;5024055;28;20042;-80
2021/12/16 05:38:48;;;;;;;115.15;61.17;;;;;;;;;;5021798;28;20421;-81
2021/12/16 05:41:15;;;;;;;119.95;63.88;;;;;;;;;;5023457;28;20484;-81
2021/12/16 05:43:41;;;;;;;125.90;62.25;;;;;;;;;;5025036;28;20033;-80
2021/12/16 05:46:07;;;;;;;112.22;60.85;;;;;;;;;;5021943;28;20060;-80
2021/12/16 05:48:34;;;;;;;112.35;60.17;;;;;;;;;;5021652;28;20432;-81
2021/12/16 05:51:02;;;;;;;116.13;58.80;;;;;;;;;;5022081;28;20350;-81
2021/12/16 05:53:28;;;;;;;117.03;59.72;;;;;;;;;;5021456;28;20068;-82
2021/12/16 05:55:54;;;;;;;129.18;61.20;;;;;;;;;;5020862;28;20034;-80
2021/12/16 05:58:20;;;;;;;114.75;57.25;;;;;;;;;;5020705;28;20068;-81
2021/12/16 06:00:48;;;;;;;107.57;55.08;;;;;;;;;;5021839;28;20044;-82
2021/12/16 06:03:14;;;;;;;123.10;62.10;;;;;;;;;;5021516;28;20038;-82
2021/12/16 06:05:40;;;;;;;108.70;58.22;;;;;;;;;;5022127;28;20096;-82
2021/12/16 06:08:06;;;;;;;112.95;56.33;;;;;;;;;;5021227;28;20042;-80
2021/12/16 06:11:18;;;;;;;104.15;56.55;;;;;;;;;;5025271;28;20046;-79
2021/12/16 06:13:25;;;;;;;117.05;56.80;;;;;;;;;;5020882;28;20137;-81
2021/12/16 06:27:12;;;;;;;108.93;56.92;;;;;;;;;;5021417;28;20067;-81
2021/12/16 06:29:33;;;;;;;111.35;57.40;;;;;;;;;;5021269;28;20066;-81
2021/12/16 06:31:59;;;;;;;120.90;62.75;;;;;;;;;;5022068;28;20042;-79
2021/12/16 06:34:25;;;;;;;120.63;59.75;;;;;;;;;;5021264;28;20056;-81
2021/12/16 06:36:51;;;;;;;113.68;55.88;;;;;;;;;;5020654;28;20049;-81
2021/12/16 06:39:17;;;;;;;118.95;58.65;;;;;;;;;;5020816;28;20037;-81
2021/12/16 06:41:43;;;;;;;115.57;55.58;;;;;;;;;;5023226;28;20370;-82
2021/12/16 06:44:24;;;;;;;115.95;56.80;;;;;;;;;;5024141;28;20070;-81
2021/12/16 06:46:53;;;;;;;131.70;60.60;;;;;;;;;;5021080;28;20044;-80
2021/12/16 06:49:21;;;;;;;130.73;61.63;;;;;;;;;;5019573;28;20117;-79
2021/12/16 06:54:20;;;;;;;129.05;59.45;;;;;;;;;;5019589;28;20042;-80
2021/12/16 07:02:17;;;;;;;129.38;60.47;;;;;;;;;;5019750;28;20134;-81
2021/12/16 07:04:45;;;;;;;156.38;67.80;;;;;;;;;;5019847;28;20073;-79
2021/12/16 07:07:11;;;;;;;153.57;64.55;;;;;;;;;;5021182;28;20046;-78
2021/12/16 07:09:37;;;;;;;134.55;62.80;;;;;;;;;;5019730;28;20133;-80
2021/12/16 07:12:03;;;;;;;142.35;63.17;;;;;;;;;;5019915;28;20045;-80
2021/12/16 07:14:38;;;;;;;158.75;66.72;;;;;;;;;;5019649;28;20073;-78
2021/12/16 07:17:05;;;;;;;151.10;63.65;;;;;;;;;;5032307;28;20053;-81
2021/12/16 07:19:31;;;;;;;169.60;67.90;;;;;;;;;;5022734;28;20046;-80
2021/12/16 07:21:57;;;;;;;147.35;69.40;;;;;;;;;;5020241;28;20050;-80
2021/12/16 07:24:24;;;;;;;160.13;72.72;;;;;;;;;;5020495;28;20536;-81
2021/12/16 07:26:50;;;;;;;157.07;70.53;;;;;;;;;;5022985;28;20039;-80
2021/12/16 07:29:16;;;;;;;159.45;66.18;;;;;;;;;;5023297;28;20065;-80
2021/12/16 07:31:42;;;;;;;141.45;64.70;;;;;;;;;;5023889;28;20052;-79
2021/12/16 07:34:08;;;;;;;135.13;62.85;;;;;;;;;;5024422;28;20041;-81
2021/12/16 07:36:35;;;;;;;146.57;65.57;;;;;;;;;;5025512;28;20038;-79
2021/12/16 07:39:01;;;;;;;153.85;68.45;;;;;;;;;;5025993;28;20049;-80
2021/12/16 07:41:32;;;;;;;146.10;69.82;;;;;;;;;;5025220;28;20213;-79
2021/12/16 07:44:09;;;;;;;143.68;64.03;;;;;;;;;;5023594;28;20417;-80
2021/12/16 07:46:45;;;;;;;133.40;59.25;;;;;;;;;;5025301;28;20037;-80
2021/12/16 07:49:13;;;;;;;122.85;60.80;;;;;;;;;;5023507;28;20037;-80
2021/12/16 07:51:39;;;;;;;144.15;60.60;;;;;;;;;;5027610;28;20042;-79
2021/12/16 07:54:05;;;;;;;123.30;60.92;;;;;;;;;;5029593;28;20044;-80
2021/12/16 07:56:31;;;;;;;126.35;57.03;;;;;;;;;;5023599;28;20048;-80
2021/12/16 07:58:57;;;;;;;135.63;63.63;;;;;;;;;;5024527;28;20381;-79
2021/12/16 08:01:23;;;;;;;135.65;62.95;;;;;;;;;;5025268;28;20057;-79
2021/12/16 08:03:49;;;;;;;130.18;60.55;;;;;;;;;;5026323;28;20422;-80
2021/12/16 08:06:21;;;;;;;145.40;65.63;;;;;;;;;;5026125;28;20034;-81
2021/12/16 08:08:47;;;;;;;129.90;63.65;;;;;;;;;;5028148;28;20091;-80
2021/12/16 08:11:13;;;;;;;116.88;59.42;;;;;;;;;;5026736;28;20041;-79
2021/12/16 08:13:39;;;;;;;127.82;61.53;;;;;;;;;;5027254;28;20046;-81
2021/12/16 08:16:05;;;;;;;132.02;67.03;;;;;;;;;;5028158;28;20038;-80
2021/12/16 08:18:32;;;;;;;161.00;71.03;;;;;;;;;;5027511;28;20041;-80
2021/12/16 08:20:58;;;;;;;168.98;73.97;;;;;;;;;;5026745;28;20161;-78
2021/12/16 08:23:24;;;;;;;140.13;66.95;;;;;;;;;;5028824;28;20048;-80
2021/12/16 08:25:50;;;;;;;124.45;61.58;;;;;;;;;;5026382;28;20354;-79
2021/12/16 08:28:16;;;;;;;134.95;65.00;;;;;;;;;;5025548;28;20041;-80
2021/12/16 08:30:43;;;;;;;146.98;69.88;;;;;;;;;;5024962;28;20072;-79
2021/12/16 08:33:12;;;;;;;137.93;64.43;;;;;;;;;;5024110;28;20038;-78
2021/12/16 08:35:42;;;;;;;142.50;68.40;;;;;;;;;;5023685;28;20112;-79
2021/12/16 08:38:09;;;;;;;126.65;62.47;;;;;;;;;;5024308;28;20104;-79
2021/12/16 08:40:35;;;;;;;132.13;67.35;;;;;;;;;;5023660;28;20092;-79
2021/12/16 08:43:01;;;;;;;121.47;63.97;;;;;;;;;;5024587;28;20045;-80
2021/12/16 08:45:28;;;;;;;143.70;65.43;;;;;;;;;;5022794;28;20034;-79
2021/12/16 08:47:54;;;;;;;126.65;63.88;;;;;;;;;;5023801;28;20045;-78
2021/12/16 08:50:21;;;;;;;131.80;67.93;;;;;;;;;;5023884;28;20034;-79
2021/12/16 08:52:47;;;;;;;131.70;63.13;;;;;;;;;;5023495;28;20100;-80
2021/12/16 08:55:13;;;;;;;127.60;64.40;;;;;;;;;;5024865;28;20104;-79
2021/12/16 08:57:39;;;;;;;141.23;66.07;;;;;;;;;;5022581;28;20110;-80
2021/12/16 09:00:06;;;;;;;139.38;63.80;;;;;;;;;;5022198;28;20061;-79
2021/12/16 09:02:32;;;;;;;127.15;63.55;;;;;;;;;;5023881;28;20394;-78
2021/12/16 09:04:58;;;;;;;121.85;60.95;;;;;;;;;;5023598;28;20034;-79
2021/12/16 09:07:24;;;;;;;132.35;63.95;;;;;;;;;;5022357;28;20104;-79
2021/12/16 09:09:50;;;;;;;124.32;62.33;;;;;;;;;;5021820;28;20489;-79
2021/12/16 09:14:57;;;;;;;140.82;63.03;;;;;;;;;;5029744;28;20073;-78
2021/12/16 09:17:23;;;;;;;138.18;66.22;;;;;;;;;;5031855;28;20037;-78
2021/12/16 09:19:53;;;;;;;139.85;66.90;;;;;;;;;;5029276;28;20041;-80
2021/12/16 09:22:20;;;;;;;137.95;64.45;;;;;;;;;;5024085;28;20085;-79
2021/12/16 09:24:46;;;;;;;133.52;64.47;;;;;;;;;;5024665;28;20099;-79
2021/12/16 09:27:12;;;;;;;145.90;65.43;;;;;;;;;;5027286;28;20041;-78
2021/12/16 09:29:38;;;;;;;157.15;67.68;;;;;;;;;;5028651;28;20061;-79
2021/12/16 09:32:05;;;;;;;140.57;65.80;;;;;;;;;;5031286;28;20102;-80
2021/12/16 09:34:31;;;;;;;145.98;66.53;;;;;;;;;;5033153;28;20103;-79
2021/12/16 09:36:58;;;;;;;135.18;64.60;;;;;;;;;;5031861;28;20042;-81
2021/12/16 09:39:26;;;;;;;145.20;67.70;;;;;;;;;;5029624;28;20112;-80
2021/12/16 09:41:52;;;;;;;141.15;65.43;;;;;;;;;;5022182;28;20049;-80
2021/12/16 09:44:19;;;;;;;146.00;65.78;;;;;;;;;;5023236;28;20362;-81
2021/12/16 09:46:47;;;;;;;150.90;66.28;;;;;;;;;;5022964;28;20073;-80
2021/12/16 09:49:13;;;;;;;150.60;66.03;;;;;;;;;;5021896;28;20073;-80
2021/12/16 09:51:41;;;;;;;152.85;67.53;;;;;;;;;;5022474;28;20108;-80
2021/12/16 09:54:08;;;;;;;143.98;66.28;;;;;;;;;;5022846;28;20119;-80
2021/12/16 09:56:35;;;;;;;153.05;69.13;;;;;;;;;;5022163;28;20049;-80
2021/12/16 09:59:01;;;;;;;150.02;67.25;;;;;;;;;;5022719;28;20046;-79
2021/12/16 10:01:28;;;;;;;149.10;65.80;;;;;;;;;;5024598;28;20215;-80
2021/12/16 10:03:56;;;;;;;152.00;66.15;;;;;;;;;;5022055;28;20038;-79
2021/12/16 10:06:22;;;;;;;154.90;66.43;;;;;;;;;;5024010;28;20034;-80
2021/12/16 10:08:48;;;;;;;138.00;65.32;;;;;;;;;;5022744;28;20033;-80
2021/12/16 10:11:15;;;;;;;135.82;62.65;;;;;;;;;;5023597;28;20115;-79
2021/12/16 10:14:16;;;;;;;140.07;64.72;;;;;;;;;;5023152;28;20033;-80
2021/12/16 10:19:13;;;;;;;129.10;60.65;;;;;;;;;;5025883;28;20050;-80
2021/12/16 10:21:41;;;;;;;142.20;64.32;;;;;;;;;;5031410;28;20046;-80
2021/12/16 10:24:22;;;;;;;133.50;60.80;;;;;;;;;;5034778;28;20038;-78
2021/12/16 10:26:48;;;;;;;136.02;63.42;;;;;;;;;;5033477;28;20457;-80
2021/12/16 10:29:14;;;;;;;135.93;63.22;;;;;;;;;;5033994;28;20038;-79
2021/12/16 10:31:40;;;;;;;134.88;63.13;;;;;;;;;;5026322;28;20088;-79
2021/12/16 10:34:07;;;;;;;130.52;61.13;;;;;;;;;;5028782;28;20046;-80
2021/12/16 10:36:33;;;;;;;128.85;60.38;;;;;;;;;;5025069;28;20107;-80
2021/12/16 10:39:07;;;;;;;128.40;60.20;;;;;;;;;;5025179;28;20443;-80
2021/12/16 10:41:37;;;;;;;125.93;59.15;;;;;;;;;;5025236;28;20050;-80
2021/12/16 10:44:12;;;;;;;123.10;58.42;;;;;;;;;;5024677;28;20398;-81
2021/12/16 10:46:43;;;;;;;140.30;57.95;;;;;;;;;;5023381;28;20049;-82
2021/12/16 10:49:18;;;;;;;129.55;57.65;;;;;;;;;;5025027;28;20042;-81
2021/12/16 10:51:54;;;;;;;127.25;59.83;;;;;;;;;;5023055;28;20068;-80
2021/12/16 10:54:23;;;;;;;129.13;57.47;;;;;;;;;;5024158;28;20042;-82
2021/12/16 10:57:11;;;;;;;134.13;61.83;;;;;;;;;;5023917;28;20091;-79
2021/12/16 10:59:38;;;;;;;122.95;57.67;;;;;;;;;;5023666;28;20077;-80
2021/12/16 11:02:09;;;;;;;131.73;59.03;;;;;;;;;;5028603;28;20438;-82
2021/12/16 11:04:36;;;;;;;125.90;59.22;;;;;;;;;;5028402;28;20092;-81
2021/12/16 11:07:04;;;;;;;121.70;58.78;;;;;;;;;;5027162;28;20077;-81
2021/12/16 11:09:35;;;;;;;115.93;56.75;;;;;;;;;;5026748;28;20053;-81
2021/12/16 11:12:21;;;;;;;108.78;56.35;;;;;;;;;;5027493;28;20057;-82
2021/12/16 11:14:54;;;;;;;112.13;55.38;;;;;;;;;;5027471;28;20040;-80
2021/12/16 11:17:21;;;;;;;114.05;55.42;;;;;;;;;;5025430;28;20049;-80
2021/12/16 11:19:49;;;;;;;107.45;55.05;;;;;;;;;;5025833;28;20421;-80
2021/12/16 11:22:16;;;;;;;121.55;55.45;;;;;;;;;;5024441;28;20117;-81
2021/12/16 11:24:42;;;;;;;106.03;56.75;;;;;;;;;;5025552;28;20030;-80
2021/12/16 11:27:25;;;;;;;116.97;54.35;;;;;;;;;;5025712;28;20049;-81
2021/12/16 11:29:51;;;;;;;113.90;57.03;;;;;;;;;;5023456;28;20033;-79
2021/12/16 11:32:36;;;;;;;109.78;55.50;;;;;;;;;;5022540;28;20056;-80
2021/12/16 11:35:08;;;;;;;129.95;56.30;;;;;;;;;;5022976;28;20042;-80
2021/12/16 11:37:45;;;;;;;106.07;54.35;;;;;;;;;;5023660;28;20454;-80
2021/12/16 11:40:11;;;;;;;102.53;51.97;;;;;;;;;;5041608;28;20036;-78
2021/12/16 11:42:37;;;;;;;102.43;51.45;;;;;;;;;;5040464;28;20097;-79
2021/12/16 11:45:03;;;;;;;107.43;54.20;;;;;;;;;;5029644;28;20160;-79
2021/12/16 11:47:30;;;;;;;105.90;52.40;;;;;;;;;;5028337;28;20050;-80
2021/12/16 11:49:59;;;;;;;107.00;52.92;;;;;;;;;;5028998;28;20097;-79
2021/12/16 11:52:29;;;;;;;103.43;50.30;;;;;;;;;;5030392;28;20081;-79
2021/12/16 11:54:59;;;;;;;105.45;53.05;;;;;;;;;;5034557;28;20110;-79
2021/12/16 11:57:28;;;;;;;112.25;53.42;;;;;;;;;;5033339;28;20365;-79
2021/12/16 11:59:56;;;;;;;109.00;51.67;;;;;;;;;;5030888;28;20517;-79
2021/12/16 12:02:23;;;;;;;107.53;50.55;;;;;;;;;;5031266;28;20100;-79
2021/12/16 12:04:49;;;;;;;104.72;50.78;;;;;;;;;;5031375;28;20038;-79
2021/12/16 12:07:15;;;;;;;101.57;50.50;;;;;;;;;;5030301;28;20094;-79
2021/12/16 12:09:43;;;;;;;105.95;50.88;;;;;;;;;;5029789;28;20052;-79
2021/12/16 12:12:09;;;;;;;96.38;49.28;;;;;;;;;;5030551;28;20038;-79
2021/12/16 12:14:35;;;;;;;100.35;50.03;;;;;;;;;;5027045;28;20042;-80
2021/12/16 12:17:12;;;;;;;94.50;48.78;;;;;;;;;;5026506;28;20046;-79
2021/12/16 12:19:42;;;;;;;100.50;49.30;;;;;;;;;;5025916;28;20069;-81
2021/12/16 12:22:08;;;;;;;99.60;50.70;;;;;;;;;;5029967;28;20054;-79
2021/12/16 12:24:36;;;;;;;104.38;51.95;;;;;;;;;;5030118;28;20042;-80
2021/12/16 12:27:04;;;;;;;108.80;51.67;;;;;;;;;;5039900;28;20061;-79
2021/12/16 12:29:32;;;;;;;104.53;52.72;;;;;;;;;;5033614;28;20049;-77
2021/12/16 12:32:03;;;;;;;111.43;51.72;;;;;;;;;;5025980;28;20085;-79
2021/12/16 12:34:29;;;;;;;104.85;52.13;;;;;;;;;;5024065;28;20041;-79
2021/12/16 12:36:56;;;;;;;102.40;52.45;;;;;;;;;;5024529;28;20533;-78
2021/12/16 12:39:24;;;;;;;97.93;50.90;;;;;;;;;;5023035;28;20382;-80
2021/12/16 12:41:50;;;;;;;111.28;53.47;;;;;;;;;;5021756;28;20053;-78
2021/12/16 12:44:16;;;;;;;103.60;52.58;;;;;;;;;;5026609;28;20117;-79
2021/12/16 12:46:42;;;;;;;111.53;54.35;;;;;;;;;;5028593;28;20038;-79
2021/12/16 12:49:11;;;;;;;106.15;52.42;;;;;;;;;;5023391;28;20034;-80
2021/12/16 12:51:38;;;;;;;106.03;53.17;;;;;;;;;;5022598;28;20358;-80
2021/12/16 12:54:15;;;;;;;109.32;52.97;;;;;;;;;;5021783;28;20053;-79
2021/12/16 12:56:41;;;;;;;107.22;51.38;;;;;;;;;;5022254;28;20038;-81
2021/12/16 12:59:11;;;;;;;103.63;51.10;;;;;;;;;;5020912;28;20034;-80
2021/12/16 13:01:48;;;;;;;102.30;51.22;;;;;;;;;;5020532;28;20577;-79
2021/12/16 13:04:14;;;;;;;97.82;48.65;;;;;;;;;;5019665;28;20049;-78
2021/12/16 13:07:09;;;;;;;106.68;50.53;;;;;;;;;;5021752;28;20117;-80
2021/12/16 13:09:37;;;;;;;109.80;51.92;;;;;;;;;;5012577;28;20098;-80
2021/12/16 13:12:05;;;;;;;119.72;53.17;;;;;;;;;;5022204;28;20081;-80
2021/12/16 13:14:44;;;;;;;110.22;53.20;;;;;;;;;;5034529;28;20030;-78
2021/12/16 13:27:59;;;;;;;104.38;52.55;;;;;;;;;;5019493;28;20401;-80
2021/12/16 13:30:31;;;;;;;107.93;52.60;;;;;;;;;;5020793;28;20402;-80
2021/12/16 13:33:14;;;;;;;100.85;52.10;;;;;;;;;;5020024;28;20446;-78
2021/12/16 13:35:47;;;;;;;100.00;51.97;;;;;;;;;;5019086;28;20068;-79
2021/12/16 13:38:13;;;;;;;106.15;52.10;;;;;;;;;;5019561;28;20345;-79
2021/12/16 13:40:40;;;;;;;96.15;52.40;;;;;;;;;;5019083;28;20434;-79
2021/12/16 13:43:32;;;;;;;101.82;51.63;;;;;;;;;;5018555;28;20060;-79
2021/12/16 13:46:26;;;;;;;100.63;52.35;;;;;;;;;;5023903;28;20037;-80
2021/12/16 13:58:08;;;;;;;113.10;51.70;;;;;;;;;;5023015;28;20401;-78
2021/12/16 14:03:29;;;;;;;102.68;51.30;;;;;;;;;;5036397;28;20170;-78
2021/12/16 14:08:37;;;;;;;108.13;51.63;;;;;;;;;;5026225;28;20038;-78
2021/12/16 14:11:30;;;;;;;98.30;49.60;;;;;;;;;;5034359;28;20068;-77
2021/12/16 14:14:26;;;;;;;101.85;50.00;;;;;;;;;;5033932;28;20025;-78
2021/12/16 14:41:24;;;;;;;87.22;44.63;;;;;;;;;;5020755;28;20088;-79
2021/12/16 14:44:19;;;;;;;88.20;45.95;;;;;;;;;;5022261;28;20069;-78
2021/12/16 14:47:00;;;;;;;94.20;46.03;;;;;;;;;;5020280;28;20030;-78
2021/12/16 14:49:30;;;;;;;88.82;45.60;;;;;;;;;;5022674;28;20077;-78
2021/12/16 14:51:58;;;;;;;86.57;44.97;;;;;;;;;;5032092;28;20084;-77
2021/12/16 14:54:24;;;;;;;81.63;44.13;;;;;;;;;;5026712;28;20046;-78
2021/12/16 14:56:50;;;;;;;83.45;45.10;;;;;;;;;;5029661;28;20038;-78
2021/12/16 14:59:18;;;;;;;96.88;45.22;;;;;;;;;;5021348;28;20151;-78
2021/12/16 15:01:47;;;;;;;81.78;44.90;;;;;;;;;;5022109;28;20415;-78
2021/12/16 15:04:15;;;;;;;84.60;45.45;;;;;;;;;;5021411;28;20155;-78
2021/12/16 15:06:50;;;;;;;95.45;46.35;;;;;;;;;;5023439;28;20424;-77
2021/12/16 15:09:23;;;;;;;95.47;47.33;;;;;;;;;;5017898;28;20052;-78
2021/12/16 15:11:59;;;;;;;92.97;47.88;;;;;;;;;;5018452;28;20468;-78
2021/12/16 15:45:06;;;;;;;87.43;45.85;;;;;;;;;;5018796;28;20061;-79
2021/12/16 15:47:37;;;;;;;90.93;47.17;;;;;;;;;;5020985;28;20045;-79
2021/12/16 15:50:03;;;;;;;88.30;47.13;;;;;;;;;;5022647;28;20443;-79
2021/12/16 15:52:37;;;;;;;91.40;46.78;;;;;;;;;;5024025;28;20038;-79
2021/12/16 15:55:04;;;;;;;91.80;44.88;;;;;;;;;;5041312;28;20048;-78
2021/12/16 15:57:30;;;;;;;97.15;49.20;;;;;;;;;;5027260;28;20050;-78
2021/12/16 16:00:06;;;;;;;88.93;46.50;;;;;;;;;;5021860;28;20512;-79
2021/12/16 16:02:33;;;;;;;94.45;50.03;;;;;;;;;;5028892;28;20042;-78
2021/12/16 16:04:59;;;;;;;109.57;49.40;;;;;;;;;;5025218;28;20048;-78
2021/12/16 16:07:25;;;;;;;101.05;49.78;;;;;;;;;;5028018;28;20034;-79
2021/12/16 16:09:52;;;;;;;100.07;49.25;;;;;;;;;;5023474;28;20030;-78
2021/12/16 16:12:19;;;;;;;98.10;46.88;;;;;;;;;;5028509;28;20038;-79
2021/12/16 16:14:49;;;;;;;88.05;44.63;;;;;;;;;;5029817;28;20056;-78
2021/12/16 16:17:18;;;;;;;92.47;46.22;;;;;;;;;;5030469;28;20042;-79
2021/12/16 16:19:45;;;;;;;91.78;43.60;;;;;;;;;;5030335;28;20045;-76
2021/12/16 16:22:11;;;;;;;94.82;46.05;;;;;;;;;;5025501;28;20053;-78
2021/12/16 16:24:44;;;;;;;93.72;45.05;;;;;;;;;;5025495;28;20042;-78
2021/12/16 16:27:11;;;;;;;77.88;41.83;;;;;;;;;;5023982;28;20052;-78
2021/12/16 16:29:39;;;;;;;96.95;48.22;;;;;;;;;;5023106;28;20181;-78
2021/12/16 16:32:05;;;;;;;88.25;44.38;;;;;;;;;;5023568;28;20104;-78
2021/12/16 16:34:32;;;;;;;91.85;47.53;;;;;;;;;;5037026;28;20046;-78
2021/12/16 16:37:00;;;;;;;98.28;44.85;;;;;;;;;;5033075;28;20056;-78
2021/12/16 16:39:27;;;;;;;87.10;45.38;;;;;;;;;;5023602;28;20053;-78
2021/12/16 16:41:54;;;;;;;87.75;43.70;;;;;;;;;;5023819;28;20049;-78
2021/12/16 16:44:20;;;;;;;103.80;53.10;;;;;;;;;;5023714;28;20046;-78
2021/12/16 16:46:55;;;;;;;106.95;51.80;;;;;;;;;;5023169;28;20034;-78
2021/12/16 16:49:26;;;;;;;101.20;50.35;;;;;;;;;;5023869;28;20488;-78
2021/12/16 16:51:52;;;;;;;109.18;53.47;;;;;;;;;;5021979;28;20038;-78
2021/12/16 16:54:28;;;;;;;116.78;52.92;;;;;;;;;;5022011;28;20045;-78
2021/12/16 16:56:57;;;;;;;109.28;53.65;;;;;;;;;;5022898;28;20066;-79
2021/12/16 16:59:43;;;;;;;97.88;51.00;;;;;;;;;;5021363;28;20176;-78
2021/12/16 17:02:24;;;;;;;97.65;50.80;;;;;;;;;;5024153;28;20045;-78
2021/12/16 17:04:58;;;;;;;103.38;50.75;;;;;;;;;;5022553;28;20076;-78
2021/12/16 17:07:24;;;;;;;97.70;48.60;;;;;;;;;;5025729;28;20070;-78
2021/12/16 17:09:50;;;;;;;106.50;51.50;;;;;;;;;;5021992;28;20069;-78
2021/12/16 17:12:17;;;;;;;110.57;49.72;;;;;;;;;;5022718;28;20045;-78
2021/12/16 17:14:51;;;;;;;101.30;47.65;;;;;;;;;;5032833;28;20103;-79
2021/12/16 17:17:22;;;;;;;91.32;44.95;;;;;;;;;;5034633;28;20049;-79
2021/12/16 17:19:57;;;;;;;96.75;45.53;;;;;;;;;;5021972;28;20076;-78
2021/12/16 17:22:27;;;;;;;97.07;47.70;;;;;;;;;;5021134;28;20081;-79
2021/12/16 17:24:54;;;;;;;87.75;46.03;;;;;;;;;;5022140;28;20034;-79
2021/12/16 17:27:20;;;;;;;101.13;48.95;;;;;;;;;;5023954;28;20048;-78
2021/12/16 17:29:56;;;;;;;107.43;53.50;;;;;;;;;;5023410;28;20045;-78
2021/12/16 17:32:24;;;;;;;110.72;52.88;;;;;;;;;;5023180;28;20053;-80
2021/12/16 17:35:06;;;;;;;104.30;52.65;;;;;;;;;;5022957;28;20046;-78
2021/12/16 17:37:40;;;;;;;111.05;53.80;;;;;;;;;;5024874;28;20141;-78
2021/12/16 17:40:09;;;;;;;112.55;54.10;;;;;;;;;;5022734;28;20033;-78
2021/12/16 17:42:39;;;;;;;116.72;52.42;;;;;;;;;;5022520;28;20048;-78
2021/12/16 17:45:08;;;;;;;101.63;48.58;;;;;;;;;;5023283;28;20136;-77
2021/12/16 17:47:35;;;;;;;107.28;51.55;;;;;;;;;;5021400;28;20048;-77
2021/12/16 17:50:01;;;;;;;120.28;54.67;;;;;;;;;;5021147;28;20049;-77
2021/12/16 17:52:29;;;;;;;123.00;54.97;;;;;;;;;;5022804;28;20414;-84
2021/12/16 17:54:56;;;;;;;116.78;52.30;;;;;;;;;;5025367;28;20351;-84
2021/12/16 17:57:29;;;;;;;124.35;51.58;;;;;;;;;;5031684;28;20041;-85
2021/12/16 17:59:55;;;;;;;;;;;;;;;;;;5031821;28;20437;-86
2021/12/16 18:02:21;;;;;;;105.13;48.47;;;;;;;;;;5024321;28;19917;-88
2021/12/16 18:04:48;;;;;;;111.32;49.17;;;;;;;;;;5036887;28;20049;-87